sensor_id;sensor_type;location;lat;lon;timestamp;P1;durP1;ratioP1;P2;durP2;ratioP2
19869;SDS011;10097;50.862;4.696;2023-05-24T00:01:23;24.07;;;3.23;;
19869;SDS011;10097;50.862;4.696;2023-05-24T00:03:52;13.90;;;2.97;;
19869;SDS011;10097;50.862;4.696;2023-05-24T00:06:19;18.33;;;3.40;;
19869;SDS011;10097;50.862;4.696;2023-05-24T00:08:45;19.37;;;2.97;;
19869;SDS011;10097;50.862;4.696;2023-05-24T00:11:11;16.63;;;2.80;;
19869;SDS011;10097;50.862;4.696;2023-05-24T00:13:37;22.90;;;3.77;;
19869;SDS011;10097;50.862;4.696;2023-05-24T00:16:03;17.53;;;3.80;;
19869;SDS011;10097;50.862;4.696;2023-05-24T00:18:29;24.80;;;3.50;;
19869;SDS011;10097;50.862;4.696;2023-05-24T00:20:55;11.83;;;2.70;;
19869;SDS011;10097;50.862;4.696;2023-05-24T00:23:22;18.03;;;3.83;;
19869;SDS011;10097;50.862;4.696;2023-05-24T00:25:49;11.77;;;3.10;;
19869;SDS011;10097;50.862;4.696;2023-05-24T00:28:15;12.47;;;3.13;;
19869;SDS011;10097;50.862;4.696;2023-05-24T00:30:41;18.63;;;4.17;;
19869;SDS011;10097;50.862;4.696;2023-05-24T00:33:07;19.17;;;3.60;;
19869;SDS011;10097;50.862;4.696;2023-05-24T00:35:32;21.67;;;3.40;;
19869;SDS011;10097;50.862;4.696;2023-05-24T00:37:58;20.73;;;3.50;;
19869;SDS011;10097;50.862;4.696;2023-05-24T00:40:24;18.30;;;3.60;;
19869;SDS011;10097;50.862;4.696;2023-05-24T00:42:49;16.20;;;3.00;;
19869;SDS011;10097;50.862;4.696;2023-05-24T00:45:15;20.33;;;3.97;;
19869;SDS011;10097;50.862;4.696;2023-05-24T00:47:41;16.63;;;3.40;;
19869;SDS011;10097;50.862;4.696;2023-05-24T00:50:07;17.30;;;3.30;;
19869;SDS011;10097;50.862;4.696;2023-05-24T00:52:34;14.73;;;3.20;;
19869;SDS011;10097;50.862;4.696;2023-05-24T00:55:00;17.20;;;4.53;;
19869;SDS011;10097;50.862;4.696;2023-05-24T00:57:27;21.60;;;4.13;;
19869;SDS011;10097;50.862;4.696;2023-05-24T00:59:52;16.93;;;3.40;;
19869;SDS011;10097;50.862;4.696;2023-05-24T01:02:20;20.87;;;4.27;;
19869;SDS011;10097;50.862;4.696;2023-05-24T01:04:46;12.77;;;3.40;;
19869;SDS011;10097;50.862;4.696;2023-05-24T01:18:15;27.43;;;3.60;;
19869;SDS011;10097;50.862;4.696;2023-05-24T01:20:51;18.20;;;4.17;;
19869;SDS011;10097;50.862;4.696;2023-05-24T01:28:42;23.37;;;4.20;;
19869;SDS011;10097;50.862;4.696;2023-05-24T01:31:09;20.17;;;4.47;;
19869;SDS011;10097;50.862;4.696;2023-05-24T01:33:41;15.10;;;3.47;;
19869;SDS011;10097;50.862;4.696;2023-05-24T01:36:07;19.43;;;3.87;;
19869;SDS011;10097;50.862;4.696;2023-05-24T01:38:32;20.30;;;4.33;;
19869;SDS011;10097;50.862;4.696;2023-05-24T01:41:00;15.53;;;3.73;;
19869;SDS011;10097;50.862;4.696;2023-05-24T01:44:04;19.03;;;4.10;;
19869;SDS011;10097;50.862;4.696;2023-05-24T01:46:37;20.63;;;4.43;;
19869;SDS011;10097;50.862;4.696;2023-05-24T01:51:54;18.43;;;4.23;;
19869;SDS011;10097;50.862;4.696;2023-05-24T01:54:25;18.70;;;4.30;;
19869;SDS011;10097;50.862;4.696;2023-05-24T01:56:55;16.93;;;4.20;;
19869;SDS011;10097;50.862;4.696;2023-05-24T01:59:23;21.93;;;4.20;;
19869;SDS011;10097;50.862;4.696;2023-05-24T02:01:50;19.53;;;4.00;;
19869;SDS011;10097;50.862;4.696;2023-05-24T02:04:16;19.77;;;3.97;;
19869;SDS011;10097;50.862;4.696;2023-05-24T02:06:42;23.87;;;4.97;;
19869;SDS011;10097;50.862;4.696;2023-05-24T02:09:08;18.20;;;3.97;;
19869;SDS011;10097;50.862;4.696;2023-05-24T02:11:33;14.20;;;4.27;;
19869;SDS011;10097;50.862;4.696;2023-05-24T02:13:59;19.60;;;4.07;;
19869;SDS011;10097;50.862;4.696;2023-05-24T02:16:25;17.10;;;4.33;;
19869;SDS011;10097;50.862;4.696;2023-05-24T02:18:54;14.67;;;3.97;;
19869;SDS011;10097;50.862;4.696;2023-05-24T02:21:20;25.97;;;4.20;;
19869;SDS011;10097;50.862;4.696;2023-05-24T02:23:47;18.30;;;4.17;;
19869;SDS011;10097;50.862;4.696;2023-05-24T02:26:13;20.67;;;4.70;;
19869;SDS011;10097;50.862;4.696;2023-05-24T02:28:39;19.70;;;4.53;;
19869;SDS011;10097;50.862;4.696;2023-05-24T02:31:05;18.60;;;4.40;;
19869;SDS011;10097;50.862;4.696;2023-05-24T02:33:31;20.43;;;4.67;;
19869;SDS011;10097;50.862;4.696;2023-05-24T02:35:57;23.97;;;4.20;;
19869;SDS011;10097;50.862;4.696;2023-05-24T02:38:23;21.87;;;4.27;;
19869;SDS011;10097;50.862;4.696;2023-05-24T02:40:49;21.47;;;4.73;;
19869;SDS011;10097;50.862;4.696;2023-05-24T02:43:14;16.97;;;5.17;;
19869;SDS011;10097;50.862;4.696;2023-05-24T02:45:40;25.67;;;5.23;;
19869;SDS011;10097;50.862;4.696;2023-05-24T02:48:05;13.50;;;4.13;;
19869;SDS011;10097;50.862;4.696;2023-05-24T02:50:31;20.93;;;4.57;;
19869;SDS011;10097;50.862;4.696;2023-05-24T02:52:57;18.50;;;4.30;;
19869;SDS011;10097;50.862;4.696;2023-05-24T02:55:23;18.60;;;4.60;;
19869;SDS011;10097;50.862;4.696;2023-05-24T02:57:48;20.63;;;4.37;;
19869;SDS011;10097;50.862;4.696;2023-05-24T03:00:14;20.77;;;5.90;;
19869;SDS011;10097;50.862;4.696;2023-05-24T03:02:40;15.90;;;4.60;;
19869;SDS011;10097;50.862;4.696;2023-05-24T03:05:06;15.40;;;4.37;;
19869;SDS011;10097;50.862;4.696;2023-05-24T03:07:32;13.63;;;4.30;;
19869;SDS011;10097;50.862;4.696;2023-05-24T03:09:58;16.53;;;4.20;;
19869;SDS011;10097;50.862;4.696;2023-05-24T03:12:23;20.53;;;4.20;;
19869;SDS011;10097;50.862;4.696;2023-05-24T03:14:49;14.30;;;4.07;;
19869;SDS011;10097;50.862;4.696;2023-05-24T03:17:15;19.47;;;4.40;;
19869;SDS011;10097;50.862;4.696;2023-05-24T03:19:40;13.03;;;3.87;;
19869;SDS011;10097;50.862;4.696;2023-05-24T03:22:06;18.57;;;4.20;;
19869;SDS011;10097;50.862;4.696;2023-05-24T03:24:32;21.70;;;4.93;;
19869;SDS011;10097;50.862;4.696;2023-05-24T03:26:58;16.80;;;4.80;;
19869;SDS011;10097;50.862;4.696;2023-05-24T03:29:24;13.93;;;3.73;;
19869;SDS011;10097;50.862;4.696;2023-05-24T03:31:50;13.27;;;4.00;;
19869;SDS011;10097;50.862;4.696;2023-05-24T03:34:16;21.50;;;4.87;;
19869;SDS011;10097;50.862;4.696;2023-05-24T03:36:42;18.37;;;5.57;;
19869;SDS011;10097;50.862;4.696;2023-05-24T03:39:07;20.80;;;4.60;;
19869;SDS011;10097;50.862;4.696;2023-05-24T03:41:33;17.23;;;4.53;;
19869;SDS011;10097;50.862;4.696;2023-05-24T03:43:59;12.40;;;4.03;;
19869;SDS011;10097;50.862;4.696;2023-05-24T03:46:25;18.67;;;4.90;;
19869;SDS011;10097;50.862;4.696;2023-05-24T03:48:50;16.63;;;4.07;;
19869;SDS011;10097;50.862;4.696;2023-05-24T03:51:16;15.40;;;3.80;;
19869;SDS011;10097;50.862;4.696;2023-05-24T03:53:42;17.77;;;4.27;;
19869;SDS011;10097;50.862;4.696;2023-05-24T03:56:07;20.77;;;4.37;;
19869;SDS011;10097;50.862;4.696;2023-05-24T03:58:33;13.87;;;3.93;;
19869;SDS011;10097;50.862;4.696;2023-05-24T04:00:59;14.80;;;3.73;;
19869;SDS011;10097;50.862;4.696;2023-05-24T04:03:25;15.63;;;4.00;;
19869;SDS011;10097;50.862;4.696;2023-05-24T04:05:51;18.03;;;4.17;;
19869;SDS011;10097;50.862;4.696;2023-05-24T04:08:17;17.07;;;4.50;;
19869;SDS011;10097;50.862;4.696;2023-05-24T04:10:43;15.63;;;4.23;;
19869;SDS011;10097;50.862;4.696;2023-05-24T04:13:08;18.37;;;4.37;;
19869;SDS011;10097;50.862;4.696;2023-05-24T04:15:34;15.83;;;4.30;;
19869;SDS011;10097;50.862;4.696;2023-05-24T04:18:01;15.10;;;4.30;;
19869;SDS011;10097;50.862;4.696;2023-05-24T04:20:27;16.07;;;4.00;;
19869;SDS011;10097;50.862;4.696;2023-05-24T04:22:53;16.77;;;4.70;;
19869;SDS011;10097;50.862;4.696;2023-05-24T04:25:20;13.80;;;3.77;;
19869;SDS011;10097;50.862;4.696;2023-05-24T04:27:46;15.27;;;4.13;;
19869;SDS011;10097;50.862;4.696;2023-05-24T04:30:13;19.67;;;4.40;;
19869;SDS011;10097;50.862;4.696;2023-05-24T04:32:40;11.20;;;4.37;;
19869;SDS011;10097;50.862;4.696;2023-05-24T04:35:08;20.07;;;4.50;;
19869;SDS011;10097;50.862;4.696;2023-05-24T04:37:34;14.90;;;3.87;;
19869;SDS011;10097;50.862;4.696;2023-05-24T04:40:00;13.37;;;4.00;;
19869;SDS011;10097;50.862;4.696;2023-05-24T04:42:27;15.43;;;4.23;;
19869;SDS011;10097;50.862;4.696;2023-05-24T04:44:56;17.33;;;5.10;;
19869;SDS011;10097;50.862;4.696;2023-05-24T04:47:23;21.43;;;5.23;;
19869;SDS011;10097;50.862;4.696;2023-05-24T04:49:49;27.07;;;4.70;;
19869;SDS011;10097;50.862;4.696;2023-05-24T04:52:14;24.07;;;5.03;;
19869;SDS011;10097;50.862;4.696;2023-05-24T04:54:41;25.20;;;5.43;;
19869;SDS011;10097;50.862;4.696;2023-05-24T04:57:06;20.90;;;4.40;;
19869;SDS011;10097;50.862;4.696;2023-05-24T04:59:32;17.50;;;4.13;;
19869;SDS011;10097;50.862;4.696;2023-05-24T05:01:58;20.87;;;4.57;;
19869;SDS011;10097;50.862;4.696;2023-05-24T05:04:24;22.13;;;5.43;;
19869;SDS011;10097;50.862;4.696;2023-05-24T05:06:49;13.30;;;4.10;;
19869;SDS011;10097;50.862;4.696;2023-05-24T05:09:16;16.97;;;4.73;;
19869;SDS011;10097;50.862;4.696;2023-05-24T05:11:43;22.00;;;5.83;;
19869;SDS011;10097;50.862;4.696;2023-05-24T05:14:10;19.03;;;4.93;;
19869;SDS011;10097;50.862;4.696;2023-05-24T05:16:36;20.43;;;5.13;;
19869;SDS011;10097;50.862;4.696;2023-05-24T05:19:02;18.37;;;4.87;;
19869;SDS011;10097;50.862;4.696;2023-05-24T05:21:28;22.83;;;5.37;;
19869;SDS011;10097;50.862;4.696;2023-05-24T05:23:57;21.17;;;5.03;;
19869;SDS011;10097;50.862;4.696;2023-05-24T05:26:23;24.03;;;5.50;;
19869;SDS011;10097;50.862;4.696;2023-05-24T05:28:51;20.00;;;4.73;;
19869;SDS011;10097;50.862;4.696;2023-05-24T05:31:16;19.03;;;4.80;;
19869;SDS011;10097;50.862;4.696;2023-05-24T05:33:42;21.27;;;5.00;;
19869;SDS011;10097;50.862;4.696;2023-05-24T05:36:08;19.50;;;4.60;;
19869;SDS011;10097;50.862;4.696;2023-05-24T05:38:33;24.73;;;5.13;;
19869;SDS011;10097;50.862;4.696;2023-05-24T05:40:59;23.20;;;4.63;;
19869;SDS011;10097;50.862;4.696;2023-05-24T05:43:25;16.10;;;4.43;;
19869;SDS011;10097;50.862;4.696;2023-05-24T05:45:50;17.23;;;4.50;;
19869;SDS011;10097;50.862;4.696;2023-05-24T05:48:16;26.57;;;5.43;;
19869;SDS011;10097;50.862;4.696;2023-05-24T05:50:42;22.77;;;4.63;;
19869;SDS011;10097;50.862;4.696;2023-05-24T05:53:07;27.23;;;6.63;;
19869;SDS011;10097;50.862;4.696;2023-05-24T05:55:33;22.27;;;5.10;;
19869;SDS011;10097;50.862;4.696;2023-05-24T05:57:59;20.33;;;4.77;;
19869;SDS011;10097;50.862;4.696;2023-05-24T06:00:24;19.90;;;4.40;;
19869;SDS011;10097;50.862;4.696;2023-05-24T06:02:50;28.73;;;5.10;;
19869;SDS011;10097;50.862;4.696;2023-05-24T06:05:16;23.57;;;4.47;;
19869;SDS011;10097;50.862;4.696;2023-05-24T06:07:43;20.77;;;4.13;;
19869;SDS011;10097;50.862;4.696;2023-05-24T06:10:09;29.93;;;6.53;;
19869;SDS011;10097;50.862;4.696;2023-05-24T06:12:35;18.93;;;4.77;;
19869;SDS011;10097;50.862;4.696;2023-05-24T06:15:03;22.37;;;6.33;;
19869;SDS011;10097;50.862;4.696;2023-05-24T06:17:30;26.97;;;4.63;;
19869;SDS011;10097;50.862;4.696;2023-05-24T06:19:56;20.80;;;4.67;;
19869;SDS011;10097;50.862;4.696;2023-05-24T06:22:21;20.13;;;5.40;;
19869;SDS011;10097;50.862;4.696;2023-05-24T06:24:47;27.10;;;4.63;;
19869;SDS011;10097;50.862;4.696;2023-05-24T06:27:13;19.43;;;3.67;;
19869;SDS011;10097;50.862;4.696;2023-05-24T06:29:39;21.30;;;4.37;;
19869;SDS011;10097;50.862;4.696;2023-05-24T06:32:05;23.27;;;4.23;;
19869;SDS011;10097;50.862;4.696;2023-05-24T06:34:31;21.10;;;3.63;;
19869;SDS011;10097;50.862;4.696;2023-05-24T06:36:56;31.90;;;4.73;;
19869;SDS011;10097;50.862;4.696;2023-05-24T06:39:22;19.77;;;4.10;;
19869;SDS011;10097;50.862;4.696;2023-05-24T06:41:49;20.37;;;3.80;;
19869;SDS011;10097;50.862;4.696;2023-05-24T06:44:15;18.30;;;4.70;;
19869;SDS011;10097;50.862;4.696;2023-05-24T06:46:41;18.87;;;4.63;;
19869;SDS011;10097;50.862;4.696;2023-05-24T06:49:07;22.47;;;3.97;;
19869;SDS011;10097;50.862;4.696;2023-05-24T06:51:33;17.50;;;3.90;;
19869;SDS011;10097;50.862;4.696;2023-05-24T06:53:58;23.67;;;3.97;;
19869;SDS011;10097;50.862;4.696;2023-05-24T06:56:24;19.90;;;3.80;;
19869;SDS011;10097;50.862;4.696;2023-05-24T06:58:51;21.37;;;3.83;;
19869;SDS011;10097;50.862;4.696;2023-05-24T07:01:16;17.90;;;4.40;;
19869;SDS011;10097;50.862;4.696;2023-05-24T07:03:42;22.90;;;3.77;;
19869;SDS011;10097;50.862;4.696;2023-05-24T07:06:08;19.87;;;5.27;;
19869;SDS011;10097;50.862;4.696;2023-05-24T07:08:37;17.00;;;3.53;;
19869;SDS011;10097;50.862;4.696;2023-05-24T07:11:06;20.07;;;3.80;;
19869;SDS011;10097;50.862;4.696;2023-05-24T07:13:32;21.77;;;4.07;;
19869;SDS011;10097;50.862;4.696;2023-05-24T07:15:58;20.17;;;3.53;;
19869;SDS011;10097;50.862;4.696;2023-05-24T07:18:24;13.00;;;3.40;;
19869;SDS011;10097;50.862;4.696;2023-05-24T07:20:50;17.40;;;3.93;;
19869;SDS011;10097;50.862;4.696;2023-05-24T07:23:15;14.10;;;3.37;;
19869;SDS011;10097;50.862;4.696;2023-05-24T07:25:41;18.77;;;3.20;;
19869;SDS011;10097;50.862;4.696;2023-05-24T07:28:07;18.43;;;3.40;;
19869;SDS011;10097;50.862;4.696;2023-05-24T07:30:32;15.57;;;3.63;;
19869;SDS011;10097;50.862;4.696;2023-05-24T07:32:59;22.87;;;4.40;;
19869;SDS011;10097;50.862;4.696;2023-05-24T07:35:25;18.80;;;3.30;;
19869;SDS011;10097;50.862;4.696;2023-05-24T07:37:53;19.63;;;2.83;;
19869;SDS011;10097;50.862;4.696;2023-05-24T07:40:19;18.97;;;4.17;;
19869;SDS011;10097;50.862;4.696;2023-05-24T07:42:45;24.77;;;3.25;;
19869;SDS011;10097;50.862;4.696;2023-05-24T07:45:11;15.10;;;2.67;;
19869;SDS011;10097;50.862;4.696;2023-05-24T07:47:38;17.05;;;3.15;;
19869;SDS011;10097;50.862;4.696;2023-05-24T07:50:03;12.52;;;2.28;;
19869;SDS011;10097;50.862;4.696;2023-05-24T07:52:29;21.55;;;3.85;;
19869;SDS011;10097;50.862;4.696;2023-05-24T07:54:55;14.15;;;2.90;;
19869;SDS011;10097;50.862;4.696;2023-05-24T07:57:21;14.43;;;2.50;;
19869;SDS011;10097;50.862;4.696;2023-05-24T07:59:46;16.35;;;2.75;;
19869;SDS011;10097;50.862;4.696;2023-05-24T08:02:12;13.45;;;2.72;;
19869;SDS011;10097;50.862;4.696;2023-05-24T08:04:39;18.88;;;3.40;;
19869;SDS011;10097;50.862;4.696;2023-05-24T08:07:05;20.65;;;3.63;;
19869;SDS011;10097;50.862;4.696;2023-05-24T08:09:31;14.80;;;3.13;;
19869;SDS011;10097;50.862;4.696;2023-05-24T08:12:00;15.27;;;3.38;;
19869;SDS011;10097;50.862;4.696;2023-05-24T08:14:29;19.50;;;3.40;;
19869;SDS011;10097;50.862;4.696;2023-05-24T08:16:55;13.35;;;2.88;;
19869;SDS011;10097;50.862;4.696;2023-05-24T08:19:20;17.13;;;3.38;;
19869;SDS011;10097;50.862;4.696;2023-05-24T08:21:47;14.70;;;2.97;;
19869;SDS011;10097;50.862;4.696;2023-05-24T08:24:13;15.90;;;3.45;;
19869;SDS011;10097;50.862;4.696;2023-05-24T08:26:38;17.38;;;3.67;;
19869;SDS011;10097;50.862;4.696;2023-05-24T08:29:04;16.05;;;3.50;;
19869;SDS011;10097;50.862;4.696;2023-05-24T08:31:30;21.38;;;3.40;;
19869;SDS011;10097;50.862;4.696;2023-05-24T08:33:58;19.35;;;3.58;;
19869;SDS011;10097;50.862;4.696;2023-05-24T08:36:25;17.25;;;3.55;;
19869;SDS011;10097;50.862;4.696;2023-05-24T08:38:51;16.92;;;3.47;;
19869;SDS011;10097;50.862;4.696;2023-05-24T08:41:16;17.92;;;3.20;;
19869;SDS011;10097;50.862;4.696;2023-05-24T08:43:42;15.20;;;3.80;;
19869;SDS011;10097;50.862;4.696;2023-05-24T08:46:08;15.90;;;2.78;;
19869;SDS011;10097;50.862;4.696;2023-05-24T08:48:37;14.38;;;4.00;;
19869;SDS011;10097;50.862;4.696;2023-05-24T08:51:12;16.95;;;3.92;;
19869;SDS011;10097;50.862;4.696;2023-05-24T08:53:39;14.32;;;3.17;;
19869;SDS011;10097;50.862;4.696;2023-05-24T08:56:06;13.80;;;3.13;;
19869;SDS011;10097;50.862;4.696;2023-05-24T08:58:34;14.02;;;3.30;;
19869;SDS011;10097;50.862;4.696;2023-05-24T09:01:02;14.75;;;3.30;;
19869;SDS011;10097;50.862;4.696;2023-05-24T09:03:30;18.83;;;3.00;;
19869;SDS011;10097;50.862;4.696;2023-05-24T09:05:57;14.05;;;2.97;;
19869;SDS011;10097;50.862;4.696;2023-05-24T09:08:25;14.13;;;3.40;;
19869;SDS011;10097;50.862;4.696;2023-05-24T09:10:52;13.82;;;2.88;;
19869;SDS011;10097;50.862;4.696;2023-05-24T09:13:19;14.27;;;2.72;;
19869;SDS011;10097;50.862;4.696;2023-05-24T09:15:48;14.98;;;3.13;;
19869;SDS011;10097;50.862;4.696;2023-05-24T09:18:13;14.75;;;2.63;;
19869;SDS011;10097;50.862;4.696;2023-05-24T09:20:39;12.73;;;2.95;;
19869;SDS011;10097;50.862;4.696;2023-05-24T09:23:05;15.73;;;3.63;;
19869;SDS011;10097;50.862;4.696;2023-05-24T09:25:32;17.13;;;3.47;;
19869;SDS011;10097;50.862;4.696;2023-05-24T09:28:00;14.95;;;3.05;;
19869;SDS011;10097;50.862;4.696;2023-05-24T09:30:31;18.25;;;3.33;;
19869;SDS011;10097;50.862;4.696;2023-05-24T09:32:58;17.58;;;3.30;;
19869;SDS011;10097;50.862;4.696;2023-05-24T09:35:28;15.85;;;2.85;;
19869;SDS011;10097;50.862;4.696;2023-05-24T09:37:58;15.63;;;3.80;;
19869;SDS011;10097;50.862;4.696;2023-05-24T09:40:24;16.13;;;3.85;;
19869;SDS011;10097;50.862;4.696;2023-05-24T09:43:07;23.02;;;3.30;;
19869;SDS011;10097;50.862;4.696;2023-05-24T09:45:37;15.38;;;3.53;;
19869;SDS011;10097;50.862;4.696;2023-05-24T09:48:11;12.80;;;3.17;;
19869;SDS011;10097;50.862;4.696;2023-05-24T09:50:38;16.73;;;3.78;;
19869;SDS011;10097;50.862;4.696;2023-05-24T09:53:04;18.08;;;3.30;;
19869;SDS011;10097;50.862;4.696;2023-05-24T09:55:30;19.27;;;4.00;;
19869;SDS011;10097;50.862;4.696;2023-05-24T09:58:04;15.18;;;3.63;;
19869;SDS011;10097;50.862;4.696;2023-05-24T10:00:40;12.77;;;3.30;;
19869;SDS011;10097;50.862;4.696;2023-05-24T10:03:06;16.33;;;3.80;;
19869;SDS011;10097;50.862;4.696;2023-05-24T10:05:34;18.35;;;4.35;;
19869;SDS011;10097;50.862;4.696;2023-05-24T10:08:01;13.27;;;3.08;;
19869;SDS011;10097;50.862;4.696;2023-05-24T10:10:31;16.73;;;3.63;;
19869;SDS011;10097;50.862;4.696;2023-05-24T10:12:58;18.58;;;3.42;;
19869;SDS011;10097;50.862;4.696;2023-05-24T10:15:25;18.45;;;3.75;;
19869;SDS011;10097;50.862;4.696;2023-05-24T10:17:52;15.63;;;3.17;;
19869;SDS011;10097;50.862;4.696;2023-05-24T10:20:19;23.52;;;3.80;;
19869;SDS011;10097;50.862;4.696;2023-05-24T10:22:45;16.13;;;3.35;;
19869;SDS011;10097;50.862;4.696;2023-05-24T10:25:21;13.35;;;3.50;;
19869;SDS011;10097;50.862;4.696;2023-05-24T10:27:51;11.55;;;3.50;;
19869;SDS011;10097;50.862;4.696;2023-05-24T10:30:30;16.38;;;4.55;;
19869;SDS011;10097;50.862;4.696;2023-05-24T10:33:05;17.02;;;3.80;;
19869;SDS011;10097;50.862;4.696;2023-05-24T10:35:32;14.82;;;3.45;;
19869;SDS011;10097;50.862;4.696;2023-05-24T10:38:05;20.48;;;4.20;;
19869;SDS011;10097;50.862;4.696;2023-05-24T10:40:31;12.07;;;3.40;;
19869;SDS011;10097;50.862;4.696;2023-05-24T10:42:58;15.93;;;3.90;;
19869;SDS011;10097;50.862;4.696;2023-05-24T10:50:37;21.92;;;4.55;;
19869;SDS011;10097;50.862;4.696;2023-05-24T10:53:16;17.92;;;4.43;;
19869;SDS011;10097;50.862;4.696;2023-05-24T10:55:59;16.92;;;4.30;;
19869;SDS011;10097;50.862;4.696;2023-05-24T11:01:27;16.58;;;3.72;;
19869;SDS011;10097;50.862;4.696;2023-05-24T11:04:10;14.48;;;4.40;;
19869;SDS011;10097;50.862;4.696;2023-05-24T11:06:55;13.85;;;3.90;;
19869;SDS011;10097;50.862;4.696;2023-05-24T11:09:27;14.15;;;4.47;;
19869;SDS011;10097;50.862;4.696;2023-05-24T11:11:54;15.38;;;4.55;;
19869;SDS011;10097;50.862;4.696;2023-05-24T11:14:28;17.27;;;4.53;;
19869;SDS011;10097;50.862;4.696;2023-05-24T11:16:54;15.82;;;4.40;;
19869;SDS011;10097;50.862;4.696;2023-05-24T11:19:38;19.63;;;4.40;;
19869;SDS011;10097;50.862;4.696;2023-05-24T11:22:14;16.33;;;4.55;;
19869;SDS011;10097;50.862;4.696;2023-05-24T11:24:40;15.23;;;4.30;;
19869;SDS011;10097;50.862;4.696;2023-05-24T11:27:06;19.05;;;4.28;;
19869;SDS011;10097;50.862;4.696;2023-05-24T11:29:39;15.93;;;4.50;;
19869;SDS011;10097;50.862;4.696;2023-05-24T11:32:09;14.18;;;5.28;;
19869;SDS011;10097;50.862;4.696;2023-05-24T11:34:39;16.85;;;4.15;;
19869;SDS011;10097;50.862;4.696;2023-05-24T11:37:05;18.00;;;4.60;;
19869;SDS011;10097;50.862;4.696;2023-05-24T11:39:32;16.70;;;4.88;;
19869;SDS011;10097;50.862;4.696;2023-05-24T11:41:59;18.20;;;4.60;;
19869;SDS011;10097;50.862;4.696;2023-05-24T11:44:28;17.40;;;5.40;;
19869;SDS011;10097;50.862;4.696;2023-05-24T11:46:59;17.17;;;4.25;;
19869;SDS011;10097;50.862;4.696;2023-05-24T11:49:26;16.40;;;4.50;;
19869;SDS011;10097;50.862;4.696;2023-05-24T11:51:53;17.77;;;5.35;;
19869;SDS011;10097;50.862;4.696;2023-05-24T11:54:20;18.23;;;5.07;;
19869;SDS011;10097;50.862;4.696;2023-05-24T11:56:47;14.50;;;3.95;;
19869;SDS011;10097;50.862;4.696;2023-05-24T11:59:13;19.38;;;4.80;;
19869;SDS011;10097;50.862;4.696;2023-05-24T12:01:40;18.45;;;4.40;;
19869;SDS011;10097;50.862;4.696;2023-05-24T12:04:06;15.10;;;4.95;;
19869;SDS011;10097;50.862;4.696;2023-05-24T12:06:36;13.95;;;4.28;;
19869;SDS011;10097;50.862;4.696;2023-05-24T12:09:07;15.57;;;4.07;;
19869;SDS011;10097;50.862;4.696;2023-05-24T12:11:38;14.35;;;4.20;;
19869;SDS011;10097;50.862;4.696;2023-05-24T12:14:05;22.45;;;4.72;;
19869;SDS011;10097;50.862;4.696;2023-05-24T12:16:32;22.08;;;5.20;;
19869;SDS011;10097;50.862;4.696;2023-05-24T12:19:00;20.30;;;4.75;;
19869;SDS011;10097;50.862;4.696;2023-05-24T12:21:28;20.30;;;4.55;;
19869;SDS011;10097;50.862;4.696;2023-05-24T12:23:55;17.08;;;4.13;;
19869;SDS011;10097;50.862;4.696;2023-05-24T12:26:21;14.50;;;4.43;;
19869;SDS011;10097;50.862;4.696;2023-05-24T12:28:51;14.45;;;4.30;;
19869;SDS011;10097;50.862;4.696;2023-05-24T12:31:19;16.15;;;4.65;;
19869;SDS011;10097;50.862;4.696;2023-05-24T12:33:45;17.33;;;4.35;;
19869;SDS011;10097;50.862;4.696;2023-05-24T12:36:11;16.30;;;4.10;;
19869;SDS011;10097;50.862;4.696;2023-05-24T12:38:37;14.68;;;3.88;;
19869;SDS011;10097;50.862;4.696;2023-05-24T12:41:03;19.02;;;4.35;;
19869;SDS011;10097;50.862;4.696;2023-05-24T12:43:30;16.80;;;4.38;;
19869;SDS011;10097;50.862;4.696;2023-05-24T12:45:56;16.38;;;4.30;;
19869;SDS011;10097;50.862;4.696;2023-05-24T12:48:21;18.88;;;4.45;;
19869;SDS011;10097;50.862;4.696;2023-05-24T12:50:48;15.13;;;4.57;;
19869;SDS011;10097;50.862;4.696;2023-05-24T12:53:15;21.00;;;4.97;;
19869;SDS011;10097;50.862;4.696;2023-05-24T12:55:40;13.18;;;4.10;;
19869;SDS011;10097;50.862;4.696;2023-05-24T12:58:06;15.30;;;4.20;;
19869;SDS011;10097;50.862;4.696;2023-05-24T13:00:33;17.08;;;5.18;;
19869;SDS011;10097;50.862;4.696;2023-05-24T13:02:59;16.25;;;4.88;;
19869;SDS011;10097;50.862;4.696;2023-05-24T13:05:25;17.20;;;5.15;;
19869;SDS011;10097;50.862;4.696;2023-05-24T13:07:51;26.48;;;5.82;;
19869;SDS011;10097;50.862;4.696;2023-05-24T13:10:18;14.98;;;4.40;;
19869;SDS011;10097;50.862;4.696;2023-05-24T13:12:44;17.50;;;4.00;;
19869;SDS011;10097;50.862;4.696;2023-05-24T13:15:10;14.60;;;4.38;;
19869;SDS011;10097;50.862;4.696;2023-05-24T13:17:36;15.35;;;4.22;;
19869;SDS011;10097;50.862;4.696;2023-05-24T13:20:03;15.07;;;4.28;;
19869;SDS011;10097;50.862;4.696;2023-05-24T13:22:32;17.42;;;4.35;;
19869;SDS011;10097;50.862;4.696;2023-05-24T13:24:58;14.25;;;3.97;;
19869;SDS011;10097;50.862;4.696;2023-05-24T13:27:24;14.38;;;3.85;;
19869;SDS011;10097;50.862;4.696;2023-05-24T13:29:50;18.42;;;4.35;;
19869;SDS011;10097;50.862;4.696;2023-05-24T13:32:16;18.55;;;4.55;;
19869;SDS011;10097;50.862;4.696;2023-05-24T13:34:42;14.60;;;3.95;;
19869;SDS011;10097;50.862;4.696;2023-05-24T13:37:08;11.88;;;3.97;;
19869;SDS011;10097;50.862;4.696;2023-05-24T13:39:34;12.05;;;4.05;;
19869;SDS011;10097;50.862;4.696;2023-05-24T13:42:00;15.40;;;4.22;;
19869;SDS011;10097;50.862;4.696;2023-05-24T13:44:26;12.65;;;3.70;;
19869;SDS011;10097;50.862;4.696;2023-05-24T13:46:52;14.70;;;3.92;;
19869;SDS011;10097;50.862;4.696;2023-05-24T13:49:20;13.93;;;3.97;;
19869;SDS011;10097;50.862;4.696;2023-05-24T13:51:46;17.65;;;4.60;;
19869;SDS011;10097;50.862;4.696;2023-05-24T13:54:13;22.33;;;4.55;;
19869;SDS011;10097;50.862;4.696;2023-05-24T13:56:39;14.93;;;4.63;;
19869;SDS011;10097;50.862;4.696;2023-05-24T13:59:06;19.05;;;4.25;;
19869;SDS011;10097;50.862;4.696;2023-05-24T14:01:32;21.80;;;4.43;;
19869;SDS011;10097;50.862;4.696;2023-05-24T14:04:00;19.83;;;4.38;;
19869;SDS011;10097;50.862;4.696;2023-05-24T14:06:26;22.73;;;4.45;;
19869;SDS011;10097;50.862;4.696;2023-05-24T14:08:56;15.85;;;4.95;;
19869;SDS011;10097;50.862;4.696;2023-05-24T14:11:23;14.07;;;4.15;;
19869;SDS011;10097;50.862;4.696;2023-05-24T14:13:49;19.77;;;4.13;;
19869;SDS011;10097;50.862;4.696;2023-05-24T14:16:15;13.00;;;4.63;;
19869;SDS011;10097;50.862;4.696;2023-05-24T14:18:40;21.02;;;5.10;;
19869;SDS011;10097;50.862;4.696;2023-05-24T14:21:07;17.08;;;4.82;;
19869;SDS011;10097;50.862;4.696;2023-05-24T14:23:32;20.00;;;4.90;;
19869;SDS011;10097;50.862;4.696;2023-05-24T14:25:58;15.38;;;4.13;;
19869;SDS011;10097;50.862;4.696;2023-05-24T14:28:24;16.27;;;4.10;;
19869;SDS011;10097;50.862;4.696;2023-05-24T14:30:49;12.70;;;3.83;;
19869;SDS011;10097;50.862;4.696;2023-05-24T14:33:15;25.15;;;4.72;;
19869;SDS011;10097;50.862;4.696;2023-05-24T14:35:41;20.20;;;4.70;;
19869;SDS011;10097;50.862;4.696;2023-05-24T14:38:08;13.45;;;3.88;;
19869;SDS011;10097;50.862;4.696;2023-05-24T14:40:35;19.58;;;4.25;;
19869;SDS011;10097;50.862;4.696;2023-05-24T14:43:03;15.93;;;4.57;;
19869;SDS011;10097;50.862;4.696;2023-05-24T14:45:29;16.98;;;4.65;;
19869;SDS011;10097;50.862;4.696;2023-05-24T14:47:55;16.30;;;4.13;;
19869;SDS011;10097;50.862;4.696;2023-05-24T14:50:21;14.63;;;4.10;;
19869;SDS011;10097;50.862;4.696;2023-05-24T14:52:49;17.02;;;4.35;;
19869;SDS011;10097;50.862;4.696;2023-05-24T14:55:15;17.83;;;4.60;;
19869;SDS011;10097;50.862;4.696;2023-05-24T14:57:41;19.48;;;4.40;;
19869;SDS011;10097;50.862;4.696;2023-05-24T15:00:07;18.38;;;4.43;;